sensor_id;sensor_type;location;lat;lon;timestamp;P1;durP1;ratioP1;P2;durP2;ratioP2
70908;SDS011;58554;52.006;5.926;2022-07-01T00:01:56;11.60;;;10.43;;
70908;SDS011;58554;52.006;5.926;2022-07-01T00:04:22;11.75;;;10.55;;
70908;SDS011;58554;52.006;5.926;2022-07-01T00:06:49;11.82;;;10.63;;
70908;SDS011;58554;52.006;5.926;2022-07-01T00:09:18;13.23;;;10.27;;
70908;SDS011;58554;52.006;5.926;2022-07-01T00:11:45;11.93;;;10.70;;
70908;SDS011;58554;52.006;5.926;2022-07-01T00:14:11;12.05;;;10.90;;
70908;SDS011;58554;52.006;5.926;2022-07-01T00:16:38;11.38;;;10.27;;
70908;SDS011;58554;52.006;5.926;2022-07-01T00:19:04;11.83;;;10.30;;
70908;SDS011;58554;52.006;5.926;2022-07-01T00:21:32;10.23;;;9.33;;
70908;SDS011;58554;52.006;5.926;2022-07-01T00:24:00;10.77;;;9.63;;
70908;SDS011;58554;52.006;5.926;2022-07-01T00:26:29;11.10;;;9.90;;
70908;SDS011;58554;52.006;5.926;2022-07-01T00:28:55;11.43;;;10.32;;
70908;SDS011;58554;52.006;5.926;2022-07-01T00:31:23;11.75;;;10.60;;
70908;SDS011;58554;52.006;5.926;2022-07-01T00:33:50;11.40;;;10.30;;
70908;SDS011;58554;52.006;5.926;2022-07-01T00:36:16;11.57;;;10.40;;
70908;SDS011;58554;52.006;5.926;2022-07-01T00:38:43;12.25;;;11.05;;
70908;SDS011;58554;52.006;5.926;2022-07-01T00:41:09;12.00;;;10.80;;
70908;SDS011;58554;52.006;5.926;2022-07-01T00:43:38;12.50;;;11.20;;
70908;SDS011;58554;52.006;5.926;2022-07-01T00:46:05;12.50;;;11.30;;
70908;SDS011;58554;52.006;5.926;2022-07-01T00:48:31;14.97;;;11.93;;
70908;SDS011;58554;52.006;5.926;2022-07-01T00:51:02;13.37;;;12.00;;
70908;SDS011;58554;52.006;5.926;2022-07-01T00:53:29;12.90;;;11.60;;
70908;SDS011;58554;52.006;5.926;2022-07-01T00:55:56;13.63;;;12.30;;
70908;SDS011;58554;52.006;5.926;2022-07-01T00:58:23;13.33;;;12.03;;
70908;SDS011;58554;52.006;5.926;2022-07-01T01:00:55;14.13;;;12.73;;
70908;SDS011;58554;52.006;5.926;2022-07-01T01:03:21;14.07;;;12.65;;
70908;SDS011;58554;52.006;5.926;2022-07-01T01:05:48;13.10;;;11.80;;
70908;SDS011;58554;52.006;5.926;2022-07-01T01:08:15;13.70;;;12.30;;
70908;SDS011;58554;52.006;5.926;2022-07-01T01:10:42;14.43;;;12.90;;
70908;SDS011;58554;52.006;5.926;2022-07-01T01:13:09;14.77;;;13.17;;
70908;SDS011;58554;52.006;5.926;2022-07-01T01:15:35;16.13;;;14.63;;
70908;SDS011;58554;52.006;5.926;2022-07-01T01:18:06;15.87;;;14.27;;
70908;SDS011;58554;52.006;5.926;2022-07-01T01:20:35;16.77;;;15.10;;
70908;SDS011;58554;52.006;5.926;2022-07-01T01:25:30;20.80;;;17.77;;
70908;SDS011;58554;52.006;5.926;2022-07-01T01:27:56;20.70;;;18.50;;
70908;SDS011;58554;52.006;5.926;2022-07-01T01:30:23;21.37;;;18.67;;
70908;SDS011;58554;52.006;5.926;2022-07-01T01:32:50;21.90;;;19.57;;
70908;SDS011;58554;52.006;5.926;2022-07-01T01:35:16;25.30;;;21.27;;
70908;SDS011;58554;52.006;5.926;2022-07-01T01:37:45;26.83;;;21.60;;
70908;SDS011;58554;52.006;5.926;2022-07-01T01:40:12;29.17;;;23.67;;
70908;SDS011;58554;52.006;5.926;2022-07-01T01:42:39;28.50;;;24.20;;
70908;SDS011;58554;52.006;5.926;2022-07-01T01:45:06;28.97;;;23.83;;
70908;SDS011;58554;52.006;5.926;2022-07-01T01:47:34;28.10;;;24.50;;
70908;SDS011;58554;52.006;5.926;2022-07-01T01:50:01;34.60;;;25.47;;
70908;SDS011;58554;52.006;5.926;2022-07-01T01:52:27;29.40;;;25.60;;
70908;SDS011;58554;52.006;5.926;2022-07-01T01:54:56;29.45;;;24.80;;
70908;SDS011;58554;52.006;5.926;2022-07-01T01:57:23;29.83;;;25.50;;
70908;SDS011;58554;52.006;5.926;2022-07-01T01:59:49;30.50;;;25.20;;
70908;SDS011;58554;52.006;5.926;2022-07-01T02:02:16;31.00;;;26.57;;
70908;SDS011;58554;52.006;5.926;2022-07-01T02:04:42;31.05;;;25.77;;
70908;SDS011;58554;52.006;5.926;2022-07-01T02:07:09;30.10;;;25.87;;
70908;SDS011;58554;52.006;5.926;2022-07-01T02:09:36;31.08;;;26.80;;
70908;SDS011;58554;52.006;5.926;2022-07-01T02:12:05;29.85;;;25.70;;
70908;SDS011;58554;52.006;5.926;2022-07-01T02:14:33;33.33;;;26.90;;
70908;SDS011;58554;52.006;5.926;2022-07-01T02:16:59;32.28;;;25.90;;
70908;SDS011;58554;52.006;5.926;2022-07-01T02:19:26;29.37;;;25.80;;
70908;SDS011;58554;52.006;5.926;2022-07-01T02:21:52;31.67;;;26.20;;
70908;SDS011;58554;52.006;5.926;2022-07-01T02:24:19;30.33;;;26.27;;
70908;SDS011;58554;52.006;5.926;2022-07-01T02:26:45;30.20;;;26.47;;
70908;SDS011;58554;52.006;5.926;2022-07-01T02:29:14;30.67;;;26.20;;
70908;SDS011;58554;52.006;5.926;2022-07-01T02:31:40;33.27;;;27.47;;
70908;SDS011;58554;52.006;5.926;2022-07-01T02:34:07;31.00;;;26.83;;
70908;SDS011;58554;52.006;5.926;2022-07-01T02:36:33;32.70;;;26.30;;
70908;SDS011;58554;52.006;5.926;2022-07-01T02:39:00;31.10;;;26.57;;
70908;SDS011;58554;52.006;5.926;2022-07-01T02:41:27;29.13;;;25.97;;
70908;SDS011;58554;52.006;5.926;2022-07-01T02:43:53;29.43;;;25.43;;
70908;SDS011;58554;52.006;5.926;2022-07-01T02:46:22;28.97;;;25.67;;
70908;SDS011;58554;52.006;5.926;2022-07-01T02:48:49;29.33;;;26.13;;
70908;SDS011;58554;52.006;5.926;2022-07-01T02:51:15;29.53;;;25.90;;
70908;SDS011;58554;52.006;5.926;2022-07-01T02:53:42;30.00;;;25.73;;
70908;SDS011;58554;52.006;5.926;2022-07-01T02:56:08;28.67;;;24.47;;
70908;SDS011;58554;52.006;5.926;2022-07-01T02:58:34;27.47;;;23.40;;
70908;SDS011;58554;52.006;5.926;2022-07-01T03:01:01;27.70;;;23.70;;
70908;SDS011;58554;52.006;5.926;2022-07-01T03:03:30;26.67;;;23.13;;
70908;SDS011;58554;52.006;5.926;2022-07-01T03:05:56;25.43;;;22.73;;
70908;SDS011;58554;52.006;5.926;2022-07-01T03:08:23;26.77;;;22.90;;
70908;SDS011;58554;52.006;5.926;2022-07-01T03:10:49;24.70;;;21.93;;
70908;SDS011;58554;52.006;5.926;2022-07-01T03:13:16;24.53;;;21.87;;
70908;SDS011;58554;52.006;5.926;2022-07-01T03:15:42;25.53;;;22.37;;
70908;SDS011;58554;52.006;5.926;2022-07-01T03:18:09;25.03;;;21.97;;
70908;SDS011;58554;52.006;5.926;2022-07-01T03:20:38;30.97;;;24.10;;
70908;SDS011;58554;52.006;5.926;2022-07-01T03:23:04;27.93;;;22.83;;
70908;SDS011;58554;52.006;5.926;2022-07-01T03:25:31;27.33;;;23.47;;
70908;SDS011;58554;52.006;5.926;2022-07-01T03:27:57;30.67;;;23.27;;
70908;SDS011;58554;52.006;5.926;2022-07-01T03:30:23;29.08;;;23.75;;
70908;SDS011;58554;52.006;5.926;2022-07-01T03:32:50;29.13;;;24.23;;
70908;SDS011;58554;52.006;5.926;2022-07-01T03:35:16;32.10;;;24.93;;
70908;SDS011;58554;52.006;5.926;2022-07-01T03:37:46;33.37;;;24.30;;
70908;SDS011;58554;52.006;5.926;2022-07-01T03:40:12;30.43;;;25.10;;
70908;SDS011;58554;52.006;5.926;2022-07-01T03:42:39;29.97;;;24.13;;
70908;SDS011;58554;52.006;5.926;2022-07-01T03:45:06;32.43;;;24.53;;
70908;SDS011;58554;52.006;5.926;2022-07-01T03:47:34;35.07;;;24.93;;
70908;SDS011;58554;52.006;5.926;2022-07-01T03:50:01;30.60;;;23.97;;
70908;SDS011;58554;52.006;5.926;2022-07-01T03:52:27;33.93;;;25.43;;
70908;SDS011;58554;52.006;5.926;2022-07-01T03:54:56;30.70;;;23.90;;
70908;SDS011;58554;52.006;5.926;2022-07-01T03:57:22;32.73;;;24.97;;
70908;SDS011;58554;52.006;5.926;2022-07-01T03:59:49;34.33;;;24.57;;
70908;SDS011;58554;52.006;5.926;2022-07-01T04:02:15;35.87;;;24.80;;
70908;SDS011;58554;52.006;5.926;2022-07-01T04:04:42;33.53;;;25.00;;
70908;SDS011;58554;52.006;5.926;2022-07-01T04:07:08;34.97;;;24.93;;
70908;SDS011;58554;52.006;5.926;2022-07-01T04:09:36;34.20;;;25.13;;
70908;SDS011;58554;52.006;5.926;2022-07-01T04:12:06;37.53;;;25.77;;
70908;SDS011;58554;52.006;5.926;2022-07-01T04:14:36;33.83;;;24.43;;
70908;SDS011;58554;52.006;5.926;2022-07-01T04:17:03;35.77;;;24.00;;
70908;SDS011;58554;52.006;5.926;2022-07-01T04:19:30;36.83;;;24.90;;
70908;SDS011;58554;52.006;5.926;2022-07-01T04:21:57;33.43;;;23.53;;
70908;SDS011;58554;52.006;5.926;2022-07-01T04:24:23;33.23;;;24.57;;
70908;SDS011;58554;52.006;5.926;2022-07-01T04:26:50;35.47;;;24.63;;
70908;SDS011;58554;52.006;5.926;2022-07-01T04:29:21;36.40;;;23.77;;
70908;SDS011;58554;52.006;5.926;2022-07-01T04:31:47;35.10;;;23.43;;
70908;SDS011;58554;52.006;5.926;2022-07-01T04:34:14;31.93;;;22.60;;
70908;SDS011;58554;52.006;5.926;2022-07-01T04:36:40;31.75;;;22.80;;
70908;SDS011;58554;52.006;5.926;2022-07-01T04:39:07;34.73;;;22.40;;
70908;SDS011;58554;52.006;5.926;2022-07-01T04:41:34;35.33;;;22.90;;
70908;SDS011;58554;52.006;5.926;2022-07-01T04:44:01;34.90;;;22.83;;
70908;SDS011;58554;52.006;5.926;2022-07-01T04:46:31;39.07;;;23.53;;
70908;SDS011;58554;52.006;5.926;2022-07-01T04:48:57;35.60;;;22.50;;
70908;SDS011;58554;52.006;5.926;2022-07-01T04:51:24;38.03;;;23.10;;
70908;SDS011;58554;52.006;5.926;2022-07-01T04:53:51;33.77;;;22.50;;
70908;SDS011;58554;52.006;5.926;2022-07-01T04:56:17;37.63;;;23.47;;
70908;SDS011;58554;52.006;5.926;2022-07-01T04:58:45;40.77;;;24.37;;
70908;SDS011;58554;52.006;5.926;2022-07-01T05:01:11;40.57;;;23.33;;
70908;SDS011;58554;52.006;5.926;2022-07-01T05:03:40;38.37;;;23.53;;
70908;SDS011;58554;52.006;5.926;2022-07-01T05:06:07;37.73;;;22.90;;
70908;SDS011;58554;52.006;5.926;2022-07-01T05:08:33;38.27;;;23.63;;
70908;SDS011;58554;52.006;5.926;2022-07-01T05:11:00;43.13;;;24.27;;
70908;SDS011;58554;52.006;5.926;2022-07-01T05:13:26;37.10;;;23.13;;
70908;SDS011;58554;52.006;5.926;2022-07-01T05:15:53;37.80;;;22.50;;
70908;SDS011;58554;52.006;5.926;2022-07-01T05:18:19;37.63;;;22.03;;
70908;SDS011;58554;52.006;5.926;2022-07-01T05:20:48;37.87;;;21.43;;
70908;SDS011;58554;52.006;5.926;2022-07-01T05:23:15;35.77;;;21.50;;
70908;SDS011;58554;52.006;5.926;2022-07-01T05:25:42;43.07;;;21.83;;
70908;SDS011;58554;52.006;5.926;2022-07-01T05:28:08;38.57;;;21.73;;
70908;SDS011;58554;52.006;5.926;2022-07-01T05:30:35;33.53;;;20.77;;
70908;SDS011;58554;52.006;5.926;2022-07-01T05:33:01;32.47;;;20.07;;
70908;SDS011;58554;52.006;5.926;2022-07-01T05:35:28;33.80;;;21.63;;
70908;SDS011;58554;52.006;5.926;2022-07-01T05:37:57;34.33;;;20.93;;
70908;SDS011;58554;52.006;5.926;2022-07-01T05:40:23;34.13;;;20.30;;
70908;SDS011;58554;52.006;5.926;2022-07-01T05:42:50;34.47;;;20.60;;
70908;SDS011;58554;52.006;5.926;2022-07-01T05:45:16;33.67;;;19.83;;
70908;SDS011;58554;52.006;5.926;2022-07-01T05:47:43;33.20;;;20.17;;
70908;SDS011;58554;52.006;5.926;2022-07-01T05:50:10;29.07;;;18.43;;
70908;SDS011;58554;52.006;5.926;2022-07-01T05:52:37;29.53;;;17.73;;
70908;SDS011;58554;52.006;5.926;2022-07-01T05:55:06;31.33;;;19.93;;
70908;SDS011;58554;52.006;5.926;2022-07-01T05:57:34;29.43;;;19.07;;
70908;SDS011;58554;52.006;5.926;2022-07-01T06:00:01;31.03;;;18.00;;
70908;SDS011;58554;52.006;5.926;2022-07-01T06:02:28;29.67;;;18.27;;
70908;SDS011;58554;52.006;5.926;2022-07-01T06:04:55;36.33;;;20.23;;
70908;SDS011;58554;52.006;5.926;2022-07-01T06:07:21;31.47;;;19.77;;
70908;SDS011;58554;52.006;5.926;2022-07-01T06:09:48;35.20;;;20.83;;
70908;SDS011;58554;52.006;5.926;2022-07-01T06:12:17;32.30;;;20.37;;
70908;SDS011;58554;52.006;5.926;2022-07-01T06:14:43;34.00;;;20.40;;
70908;SDS011;58554;52.006;5.926;2022-07-01T06:17:09;31.63;;;19.53;;
70908;SDS011;58554;52.006;5.926;2022-07-01T06:19:36;32.10;;;20.00;;
70908;SDS011;58554;52.006;5.926;2022-07-01T06:22:03;36.87;;;21.17;;
70908;SDS011;58554;52.006;5.926;2022-07-01T06:24:30;33.10;;;19.57;;
70908;SDS011;58554;52.006;5.926;2022-07-01T06:26:57;34.40;;;20.00;;
70908;SDS011;58554;52.006;5.926;2022-07-01T06:29:26;35.57;;;20.37;;
70908;SDS011;58554;52.006;5.926;2022-07-01T06:31:53;34.67;;;19.43;;
70908;SDS011;58554;52.006;5.926;2022-07-01T06:34:19;33.33;;;19.60;;
70908;SDS011;58554;52.006;5.926;2022-07-01T06:36:46;33.80;;;20.43;;
70908;SDS011;58554;52.006;5.926;2022-07-01T06:39:12;30.33;;;18.77;;
70908;SDS011;58554;52.006;5.926;2022-07-01T06:41:39;34.33;;;19.17;;
70908;SDS011;58554;52.006;5.926;2022-07-01T06:44:05;29.47;;;18.60;;
70908;SDS011;58554;52.006;5.926;2022-07-01T06:46:34;32.80;;;19.37;;
70908;SDS011;58554;52.006;5.926;2022-07-01T06:49:01;32.97;;;20.43;;
70908;SDS011;58554;52.006;5.926;2022-07-01T06:51:27;32.83;;;19.10;;
70908;SDS011;58554;52.006;5.926;2022-07-01T06:53:54;31.77;;;19.60;;
70908;SDS011;58554;52.006;5.926;2022-07-01T06:56:20;35.90;;;20.40;;
70908;SDS011;58554;52.006;5.926;2022-07-01T06:58:47;31.03;;;18.83;;
70908;SDS011;58554;52.006;5.926;2022-07-01T07:01:13;31.37;;;17.83;;
70908;SDS011;58554;52.006;5.926;2022-07-01T07:03:42;30.60;;;18.40;;
70908;SDS011;58554;52.006;5.926;2022-07-01T07:06:09;31.60;;;18.43;;
70908;SDS011;58554;52.006;5.926;2022-07-01T07:08:35;31.03;;;17.37;;
70908;SDS011;58554;52.006;5.926;2022-07-01T07:11:02;28.13;;;18.33;;
70908;SDS011;58554;52.006;5.926;2022-07-01T07:13:28;28.40;;;16.97;;
70908;SDS011;58554;52.006;5.926;2022-07-01T07:15:55;26.13;;;17.07;;
70908;SDS011;58554;52.006;5.926;2022-07-01T07:18:22;34.27;;;19.33;;
70908;SDS011;58554;52.006;5.926;2022-07-01T07:20:51;28.90;;;18.13;;
70908;SDS011;58554;52.006;5.926;2022-07-01T07:23:17;30.10;;;16.37;;
70908;SDS011;58554;52.006;5.926;2022-07-01T07:25:44;29.97;;;16.43;;
70908;SDS011;58554;52.006;5.926;2022-07-01T07:28:10;29.40;;;17.73;;
70908;SDS011;58554;52.006;5.926;2022-07-01T07:30:37;25.93;;;15.80;;
70908;SDS011;58554;52.006;5.926;2022-07-01T07:33:04;25.07;;;16.00;;
70908;SDS011;58554;52.006;5.926;2022-07-01T07:35:30;28.87;;;17.10;;
70908;SDS011;58554;52.006;5.926;2022-07-01T07:38:00;26.42;;;16.13;;
70908;SDS011;58554;52.006;5.926;2022-07-01T07:40:26;24.92;;;16.00;;
70908;SDS011;58554;52.006;5.926;2022-07-01T07:42:53;25.70;;;15.80;;
70908;SDS011;58554;52.006;5.926;2022-07-01T07:45:19;26.98;;;15.93;;
70908;SDS011;58554;52.006;5.926;2022-07-01T07:47:46;28.67;;;16.10;;
70908;SDS011;58554;52.006;5.926;2022-07-01T07:50:14;21.97;;;15.13;;
70908;SDS011;58554;52.006;5.926;2022-07-01T07:52:42;21.13;;;14.03;;
70908;SDS011;58554;52.006;5.926;2022-07-01T07:55:11;24.83;;;15.35;;
70908;SDS011;58554;52.006;5.926;2022-07-01T07:57:38;24.87;;;15.40;;
70908;SDS011;58554;52.006;5.926;2022-07-01T08:00:07;20.37;;;14.13;;
70908;SDS011;58554;52.006;5.926;2022-07-01T08:02:37;24.33;;;14.83;;
70908;SDS011;58554;52.006;5.926;2022-07-01T08:05:05;30.43;;;15.03;;
70908;SDS011;58554;52.006;5.926;2022-07-01T08:07:34;20.33;;;14.00;;
70908;SDS011;58554;52.006;5.926;2022-07-01T08:10:03;22.93;;;14.50;;
70908;SDS011;58554;52.006;5.926;2022-07-01T08:12:34;19.30;;;13.30;;
70908;SDS011;58554;52.006;5.926;2022-07-01T08:15:01;22.23;;;13.83;;
70908;SDS011;58554;52.006;5.926;2022-07-01T08:17:29;23.23;;;13.23;;
70908;SDS011;58554;52.006;5.926;2022-07-01T08:19:56;18.25;;;13.00;;
70908;SDS011;58554;52.006;5.926;2022-07-01T08:22:23;17.20;;;11.73;;
70908;SDS011;58554;52.006;5.926;2022-07-01T08:24:50;15.10;;;10.87;;
70908;SDS011;58554;52.006;5.926;2022-07-01T08:27:16;16.60;;;11.50;;
70908;SDS011;58554;52.006;5.926;2022-07-01T08:29:45;12.77;;;9.73;;
70908;SDS011;58554;52.006;5.926;2022-07-01T08:32:12;14.33;;;10.47;;
70908;SDS011;58554;52.006;5.926;2022-07-01T08:34:38;14.93;;;9.90;;
70908;SDS011;58554;52.006;5.926;2022-07-01T08:37:05;12.27;;;8.47;;
70908;SDS011;58554;52.006;5.926;2022-07-01T08:39:32;14.47;;;7.90;;
70908;SDS011;58554;52.006;5.926;2022-07-01T08:41:58;12.13;;;6.70;;
70908;SDS011;58554;52.006;5.926;2022-07-01T08:44:25;10.17;;;5.53;;
70908;SDS011;58554;52.006;5.926;2022-07-01T08:46:54;10.53;;;6.43;;
70908;SDS011;58554;52.006;5.926;2022-07-01T08:49:21;8.50;;;5.37;;
70908;SDS011;58554;52.006;5.926;2022-07-01T08:51:48;7.53;;;4.63;;
70908;SDS011;58554;52.006;5.926;2022-07-01T08:54:15;8.88;;;5.07;;
70908;SDS011;58554;52.006;5.926;2022-07-01T08:56:41;7.33;;;3.77;;
70908;SDS011;58554;52.006;5.926;2022-07-01T08:59:08;7.17;;;3.87;;
70908;SDS011;58554;52.006;5.926;2022-07-01T09:01:35;7.67;;;3.50;;
70908;SDS011;58554;52.006;5.926;2022-07-01T09:04:15;4.90;;;3.27;;
70908;SDS011;58554;52.006;5.926;2022-07-01T09:06:43;7.53;;;3.20;;
70908;SDS011;58554;52.006;5.926;2022-07-01T09:09:12;4.80;;;2.80;;
70908;SDS011;58554;52.006;5.926;2022-07-01T09:11:44;6.63;;;3.60;;
70908;SDS011;58554;52.006;5.926;2022-07-01T09:14:13;6.53;;;2.70;;
70908;SDS011;58554;52.006;5.926;2022-07-01T09:16:41;5.30;;;2.73;;
70908;SDS011;58554;52.006;5.926;2022-07-01T09:19:10;6.90;;;3.43;;
70908;SDS011;58554;52.006;5.926;2022-07-01T09:21:42;7.85;;;2.83;;
70908;SDS011;58554;52.006;5.926;2022-07-01T09:24:25;4.73;;;2.53;;
70908;SDS011;58554;52.006;5.926;2022-07-01T09:29:27;5.63;;;2.27;;
70908;SDS011;58554;52.006;5.926;2022-07-01T09:31:56;5.20;;;2.07;;
70908;SDS011;58554;52.006;5.926;2022-07-01T09:34:25;6.13;;;2.00;;
70908;SDS011;58554;52.006;5.926;2022-07-01T09:36:52;4.63;;;1.80;;
70908;SDS011;58554;52.006;5.926;2022-07-01T09:39:21;4.63;;;1.73;;
70908;SDS011;58554;52.006;5.926;2022-07-01T09:41:48;5.03;;;1.90;;
70908;SDS011;58554;52.006;5.926;2022-07-01T09:44:15;6.17;;;1.70;;
70908;SDS011;58554;52.006;5.926;2022-07-01T09:46:54;4.23;;;2.03;;
70908;SDS011;58554;52.006;5.926;2022-07-01T09:49:25;3.83;;;1.77;;
70908;SDS011;58554;52.006;5.926;2022-07-01T09:51:51;3.50;;;1.50;;
70908;SDS011;58554;52.006;5.926;2022-07-01T09:54:18;4.20;;;2.13;;
70908;SDS011;58554;52.006;5.926;2022-07-01T09:56:45;4.83;;;1.70;;
70908;SDS011;58554;52.006;5.926;2022-07-01T09:59:12;4.20;;;1.63;;
70908;SDS011;58554;52.006;5.926;2022-07-01T10:01:39;3.17;;;1.67;;
70908;SDS011;58554;52.006;5.926;2022-07-01T10:04:07;4.10;;;1.70;;
70908;SDS011;58554;52.006;5.926;2022-07-01T10:06:42;3.83;;;1.70;;
70908;SDS011;58554;52.006;5.926;2022-07-01T10:09:34;2.28;;;1.70;;
70908;SDS011;58554;52.006;5.926;2022-07-01T10:12:28;4.63;;;1.60;;
70908;SDS011;58554;52.006;5.926;2022-07-01T10:14:59;4.80;;;1.63;;
70908;SDS011;58554;52.006;5.926;2022-07-01T10:17:31;6.20;;;2.20;;
70908;SDS011;58554;52.006;5.926;2022-07-01T10:20:06;3.22;;;1.60;;
70908;SDS011;58554;52.006;5.926;2022-07-01T10:22:39;3.90;;;1.53;;
70908;SDS011;58554;52.006;5.926;2022-07-01T10:28:13;2.57;;;1.23;;
70908;SDS011;58554;52.006;5.926;2022-07-01T10:30:53;3.87;;;1.50;;
70908;SDS011;58554;52.006;5.926;2022-07-01T10:33:29;2.57;;;1.67;;
70908;SDS011;58554;52.006;5.926;2022-07-01T10:36:05;2.67;;;1.33;;
70908;SDS011;58554;52.006;5.926;2022-07-01T10:39:07;2.10;;;1.00;;
70908;SDS011;58554;52.006;5.926;2022-07-01T10:41:38;1.50;;;0.83;;
70908;SDS011;58554;52.006;5.926;2022-07-01T10:44:20;1.40;;;1.07;;
70908;SDS011;58554;52.006;5.926;2022-07-01T10:46:51;5.63;;;1.93;;
70908;SDS011;58554;52.006;5.926;2022-07-01T10:49:20;2.53;;;1.23;;
70908;SDS011;58554;52.006;5.926;2022-07-01T10:52:18;4.57;;;1.60;;
70908;SDS011;58554;52.006;5.926;2022-07-01T10:54:48;6.15;;;1.70;;
70908;SDS011;58554;52.006;5.926;2022-07-01T10:57:22;3.53;;;1.20;;
70908;SDS011;58554;52.006;5.926;2022-07-01T10:59:55;4.87;;;1.20;;
70908;SDS011;58554;52.006;5.926;2022-07-01T11:03:01;6.05;;;1.50;;
70908;SDS011;58554;52.006;5.926;2022-07-01T11:05:38;3.70;;;1.23;;
70908;SDS011;58554;52.006;5.926;2022-07-01T11:08:05;3.07;;;1.30;;
70908;SDS011;58554;52.006;5.926;2022-07-01T11:10:34;2.00;;;1.50;;
70908;SDS011;58554;52.006;5.926;2022-07-01T11:13:01;4.65;;;1.63;;
70908;SDS011;58554;52.006;5.926;2022-07-01T11:15:32;3.53;;;1.20;;
70908;SDS011;58554;52.006;5.926;2022-07-01T11:18:00;4.07;;;0.90;;
70908;SDS011;58554;52.006;5.926;2022-07-01T11:20:28;2.00;;;1.10;;
70908;SDS011;58554;52.006;5.926;2022-07-01T11:22:58;2.25;;;1.00;;
70908;SDS011;58554;52.006;5.926;2022-07-01T11:25:26;2.60;;;1.00;;
70908;SDS011;58554;52.006;5.926;2022-07-01T11:27:53;3.67;;;1.27;;
70908;SDS011;58554;52.006;5.926;2022-07-01T11:30:20;4.27;;;0.90;;
70908;SDS011;58554;52.006;5.926;2022-07-01T11:32:51;2.13;;;1.03;;
70908;SDS011;58554;52.006;5.926;2022-07-01T11:35:21;4.22;;;1.00;;
70908;SDS011;58554;52.006;5.926;2022-07-01T11:37:51;2.28;;;1.20;;
70908;SDS011;58554;52.006;5.926;2022-07-01T11:40:17;2.67;;;1.50;;
70908;SDS011;58554;52.006;5.926;2022-07-01T11:42:44;3.27;;;1.20;;
70908;SDS011;58554;52.006;5.926;2022-07-01T11:45:21;3.50;;;1.15;;
70908;SDS011;58554;52.006;5.926;2022-07-01T11:47:53;4.17;;;1.60;;
70908;SDS011;58554;52.006;5.926;2022-07-01T11:50:20;4.55;;;1.00;;
70908;SDS011;58554;52.006;5.926;2022-07-01T11:52:47;3.60;;;0.93;;
70908;SDS011;58554;52.006;5.926;2022-07-01T11:55:18;2.58;;;1.02;;
70908;SDS011;58554;52.006;5.926;2022-07-01T11:57:45;4.00;;;0.90;;
70908;SDS011;58554;52.006;5.926;2022-07-01T12:00:16;3.22;;;0.90;;
70908;SDS011;58554;52.006;5.926;2022-07-01T12:02:43;2.70;;;1.20;;
70908;SDS011;58554;52.006;5.926;2022-07-01T12:05:17;5.32;;;1.10;;
70908;SDS011;58554;52.006;5.926;2022-07-01T12:07:45;5.53;;;1.20;;
70908;SDS011;58554;52.006;5.926;2022-07-01T12:10:13;4.07;;;0.80;;
70908;SDS011;58554;52.006;5.926;2022-07-01T12:12:40;2.30;;;0.83;;
70908;SDS011;58554;52.006;5.926;2022-07-01T12:15:07;3.25;;;1.00;;
70908;SDS011;58554;52.006;5.926;2022-07-01T12:17:40;2.00;;;0.90;;
70908;SDS011;58554;52.006;5.926;2022-07-01T12:20:08;3.40;;;0.80;;
70908;SDS011;58554;52.006;5.926;2022-07-01T12:22:37;5.03;;;1.37;;
70908;SDS011;58554;52.006;5.926;2022-07-01T12:25:05;3.20;;;1.10;;
70908;SDS011;58554;52.006;5.926;2022-07-01T12:27:35;3.22;;;0.80;;
70908;SDS011;58554;52.006;5.926;2022-07-01T12:30:03;5.67;;;0.90;;
70908;SDS011;58554;52.006;5.926;2022-07-01T12:32:34;3.83;;;1.00;;
70908;SDS011;58554;52.006;5.926;2022-07-01T12:35:04;5.27;;;1.10;;
70908;SDS011;58554;52.006;5.926;2022-07-01T12:37:33;2.33;;;0.77;;
70908;SDS011;58554;52.006;5.926;2022-07-01T12:40:04;4.07;;;1.10;;
70908;SDS011;58554;52.006;5.926;2022-07-01T12:42:34;2.70;;;0.97;;
70908;SDS011;58554;52.006;5.926;2022-07-01T12:45:04;3.07;;;0.80;;
70908;SDS011;58554;52.006;5.926;2022-07-01T12:47:35;2.80;;;0.70;;
70908;SDS011;58554;52.006;5.926;2022-07-01T12:50:09;1.23;;;0.70;;
70908;SDS011;58554;52.006;5.926;2022-07-01T12:52:59;4.53;;;1.20;;
70908;SDS011;58554;52.006;5.926;2022-07-01T12:55:31;3.63;;;1.00;;
70908;SDS011;58554;52.006;5.926;2022-07-01T12:58:02;4.10;;;1.20;;
70908;SDS011;58554;52.006;5.926;2022-07-01T13:00:31;6.18;;;1.40;;
70908;SDS011;58554;52.006;5.926;2022-07-01T13:03:01;2.33;;;1.23;;
70908;SDS011;58554;52.006;5.926;2022-07-01T13:05:30;2.60;;;1.00;;
70908;SDS011;58554;52.006;5.926;2022-07-01T13:08:02;1.40;;;1.10;;
70908;SDS011;58554;52.006;5.926;2022-07-01T13:10:30;3.43;;;1.50;;
70908;SDS011;58554;52.006;5.926;2022-07-01T13:12:57;1.93;;;1.10;;
70908;SDS011;58554;52.006;5.926;2022-07-01T13:15:24;2.17;;;1.30;;
70908;SDS011;58554;52.006;5.926;2022-07-01T13:17:51;2.93;;;1.13;;
70908;SDS011;58554;52.006;5.926;2022-07-01T13:20:18;3.47;;;1.40;;
70908;SDS011;58554;52.006;5.926;2022-07-01T13:22:45;1.70;;;1.00;;
70908;SDS011;58554;52.006;5.926;2022-07-01T13:25:16;3.83;;;1.40;;
70908;SDS011;58554;52.006;5.926;2022-07-01T13:27:42;1.93;;;1.10;;
70908;SDS011;58554;52.006;5.926;2022-07-01T13:30:09;1.83;;;1.10;;
70908;SDS011;58554;52.006;5.926;2022-07-01T13:32:39;3.57;;;1.10;;
70908;SDS011;58554;52.006;5.926;2022-07-01T13:35:07;5.97;;;1.83;;
70908;SDS011;58554;52.006;5.926;2022-07-01T13:37:37;4.00;;;1.40;;
70908;SDS011;58554;52.006;5.926;2022-07-01T13:40:06;3.40;;;1.27;;
70908;SDS011;58554;52.006;5.926;2022-07-01T13:42:36;5.53;;;1.80;;
70908;SDS011;58554;52.006;5.926;2022-07-01T13:45:04;4.70;;;1.87;;
70908;SDS011;58554;52.006;5.926;2022-07-01T13:47:32;4.97;;;1.70;;
70908;SDS011;58554;52.006;5.926;2022-07-01T13:49:59;3.43;;;1.50;;
70908;SDS011;58554;52.006;5.926;2022-07-01T13:52:26;4.30;;;1.97;;
70908;SDS011;58554;52.006;5.926;2022-07-01T13:54:53;5.57;;;1.50;;
70908;SDS011;58554;52.006;5.926;2022-07-01T13:57:20;5.07;;;1.67;;
70908;SDS011;58554;52.006;5.926;2022-07-01T13:59:51;3.13;;;1.40;;
70908;SDS011;58554;52.006;5.926;2022-07-01T14:02:18;3.27;;;1.47;;
70908;SDS011;58554;52.006;5.926;2022-07-01T14:04:44;3.07;;;1.20;;
70908;SDS011;58554;52.006;5.926;2022-07-01T14:07:11;2.80;;;0.80;;
70908;SDS011;58554;52.006;5.926;2022-07-01T14:09:37;2.80;;;1.00;;
70908;SDS011;58554;52.006;5.926;2022-07-01T14:12:04;1.67;;;0.70;;
70908;SDS011;58554;52.006;5.926;2022-07-01T14:14:32;3.10;;;0.70;;
70908;SDS011;58554;52.006;5.926;2022-07-01T14:17:01;3.80;;;0.70;;
70908;SDS011;58554;52.006;5.926;2022-07-01T14:21:55;3.10;;;0.93;;
70908;SDS011;58554;52.006;5.926;2022-07-01T14:24:21;3.37;;;1.00;;
70908;SDS011;58554;52.006;5.926;2022-07-01T14:26:48;3.97;;;1.13;;
70908;SDS011;58554;52.006;5.926;2022-07-01T14:29:14;1.50;;;0.80;;
70908;SDS011;58554;52.006;5.926;2022-07-01T14:31:41;2.00;;;0.60;;
70908;SDS011;58554;52.006;5.926;2022-07-01T14:34:10;2.27;;;0.93;;
70908;SDS011;58554;52.006;5.926;2022-07-01T14:36:36;4.03;;;1.10;;
70908;SDS011;58554;52.006;5.926;2022-07-01T14:39:03;2.30;;;0.80;;
70908;SDS011;58554;52.006;5.926;2022-07-01T14:41:29;3.63;;;1.10;;
70908;SDS011;58554;52.006;5.926;2022-07-01T14:43:56;2.70;;;1.00;;
70908;SDS011;58554;52.006;5.926;2022-07-01T14:46:22;1.27;;;0.70;;
70908;SDS011;58554;52.006;5.926;2022-07-01T14:48:49;1.47;;;0.80;;
70908;SDS011;58554;52.006;5.926;2022-07-01T14:51:18;2.13;;;0.50;;